Time;durP1;ratioP1;P1;durP2;ratioP2;P2;SDS_P1;SDS_P2;PMS_P1;PMS_P2;Temp;Humidity;BMP_temperature;BMP_pressure;BME280_temperature;BME280_humidity;BME280_pressure;Samples;Min_cycle;Max_cycle;Signal;HPM_P1;HPM_P2
2021/10/17 00:00:11;;;;;;;10.10;5.10;;;;;;;3.82;80.44;97185.31;115437;1199;26784;-89
2021/10/17 00:02:59;;;;;;;10.10;4.30;;;;;;;3.79;80.58;97186.01;115528;1199;39298;-89
2021/10/17 00:05:30;;;;;;;11.70;5.20;;;;;;;3.76;80.61;97187.29;115576;1198;34407;-88
2021/10/17 00:07:57;;;;;;;;;;;;;;;3.73;80.76;97192.02;115551;1199;27426;-89
2021/10/17 00:10:28;;;;;;;12.40;5.40;;;;;;;3.70;80.73;97191.10;115470;1199;27382;-89
2021/10/17 00:13:00;;;;;;;10.30;4.70;;;;;;;3.67;80.85;97193.91;115450;1199;26819;-88
2021/10/17 00:15:38;;;;;;;10.10;4.80;;;;;;;3.68;80.78;97191.05;115431;1199;28243;-89
2021/10/17 00:18:08;;;;;;;9.80;5.50;;;;;;;3.61;80.76;97194.89;115382;1193;26983;-89
2021/10/17 00:20:37;;;;;;;11.90;5.70;;;;;;;3.55;80.55;97195.46;115435;1192;27430;-90
2021/10/17 00:23:06;;;;;;;13.80;6.80;;;;;;;3.47;80.56;97191.02;115415;1199;25946;-88
2021/10/17 00:25:34;;;;;;;13.90;6.50;;;;;;;3.45;80.73;97189.88;115422;1199;30776;-88
2021/10/17 00:28:03;;;;;;;11.50;5.20;;;;;;;3.46;80.96;97196.72;115379;1199;25881;-88
2021/10/17 00:30:31;;;;;;;13.60;6.30;;;;;;;3.50;81.02;97197.67;115428;1199;25985;-90
2021/10/17 00:32:59;;;;;;;8.90;4.40;;;;;;;3.55;80.98;97195.38;115473;1192;31773;-88
2021/10/17 00:35:27;;;;;;;7.80;3.80;;;;;;;3.62;80.84;97195.38;115511;1198;25194;-88
2021/10/17 00:37:55;;;;;;;9.60;3.80;;;;;;;3.69;80.70;97192.56;115549;1198;26988;-90
2021/10/17 00:40:23;;;;;;;11.50;4.90;;;;;;;3.72;80.28;97191.70;115424;1198;24995;-90
2021/10/17 00:42:52;;;;;;;9.90;5.10;;;;;;;3.69;80.19;97191.19;115470;1199;24701;-90
2021/10/17 00:45:27;;;;;;;12.20;5.40;;;;;;;3.64;80.29;97193.61;115600;1198;25445;-90
2021/10/17 00:47:55;;;;;;;11.80;6.40;;;;;;;3.63;80.45;97187.29;115627;1198;28069;-90
2021/10/17 00:50:24;;;;;;;12.90;6.10;;;;;;;3.65;80.34;97189.44;115490;1199;25468;-90
2021/10/17 00:52:52;;;;;;;12.20;6.60;;;;;;;3.67;80.34;97188.35;115554;1184;30412;-90
2021/10/17 00:55:22;;;;;;;11.60;6.50;;;;;;;3.71;80.22;97185.59;115540;1199;29705;-90
2021/10/17 00:57:50;;;;;;;13.20;6.10;;;;;;;3.74;80.25;97186.77;115577;1198;29420;-91
2021/10/17 01:00:18;;;;;;;14.50;7.10;;;;;;;3.73;80.03;97181.97;115495;1198;25209;-90
2021/10/17 01:02:46;;;;;;;15.90;8.10;;;;;;;3.75;80.25;97182.96;115476;1199;28835;-90
2021/10/17 01:05:16;;;;;;;13.80;7.20;;;;;;;3.78;80.20;97183.15;115471;1199;28899;-91
2021/10/17 01:07:45;;;;;;;12.40;6.20;;;;;;;3.79;80.13;97186.48;115389;1193;28991;-90
2021/10/17 01:10:14;;;;;;;15.40;7.50;;;;;;;3.78;79.88;97185.09;115415;1192;30158;-89
2021/10/17 01:12:43;;;;;;;13.90;7.20;;;;;;;3.77;79.83;97182.27;115466;1199;30495;-90
2021/10/17 01:15:12;;;;;;;16.70;9.00;;;;;;;3.74;79.83;97181.15;115501;1199;26252;-89
2021/10/17 01:17:40;;;;;;;16.20;8.00;;;;;;;3.67;79.82;97181.89;115438;1199;36005;-89
2021/10/17 01:20:10;;;;;;;17.50;8.80;;;;;;;3.64;79.90;97184.16;115429;1199;26260;-91
2021/10/17 01:22:41;;;;;;;17.60;9.60;;;;;;;3.67;80.07;97180.85;115466;1198;27436;-90
2021/10/17 01:25:10;;;;;;;17.10;9.70;;;;;;;3.69;80.13;97178.92;115237;1199;36168;-89
2021/10/17 01:27:39;;;;;;;18.00;9.00;;;;;;;3.72;80.11;97177.67;115432;1199;27335;-89
2021/10/17 01:30:15;;;;;;;15.40;8.80;;;;;;;3.73;80.10;97174.88;115422;1199;45679;-88
2021/10/17 01:32:44;;;;;;;18.00;7.80;;;;;;;3.76;80.05;97176.36;115390;1184;24117;-90
2021/10/17 01:35:12;;;;;;;14.70;7.90;;;;;;;3.77;80.05;97175.45;115435;1193;26238;-90
2021/10/17 01:37:40;;;;;;;15.30;8.50;;;;;;;3.77;80.10;97174.50;115405;1199;24516;-91
2021/10/17 01:40:11;;;;;;;15.80;8.80;;;;;;;3.75;80.08;97174.09;115387;1199;41222;-90
2021/10/17 01:42:40;;;;;;;18.80;9.60;;;;;;;3.71;80.08;97171.64;115492;1199;25434;-90
2021/10/17 01:45:10;;;;;;;15.80;8.10;;;;;;;3.70;80.08;97169.55;115516;1192;25859;-89
2021/10/17 01:47:44;;;;;;;15.80;7.80;;;;;;;3.73;80.03;97169.84;115487;1192;33082;-90
2021/10/17 01:50:13;;;;;;;14.10;6.80;;;;;;;3.74;79.93;97168.36;115446;1192;27075;-90
2021/10/17 01:52:41;;;;;;;17.20;7.50;;;;;;;3.73;79.84;97170.52;115407;1199;26236;-89
2021/10/17 01:55:10;;;;;;;14.10;7.10;;;;;;;3.70;79.69;97168.14;115442;1184;25219;-89
2021/10/17 01:57:40;;;;;;;11.30;5.90;;;;;;;3.65;79.84;97166.54;115449;1192;27692;-89
2021/10/17 02:00:09;;;;;;;11.70;6.50;;;;;;;3.63;79.92;97167.73;115131;1187;26831;-90
2021/10/17 02:02:37;;;;;;;11.10;6.40;;;;;;;3.63;79.97;97172.02;115449;1193;26426;-90
2021/10/17 02:05:08;;;;;;;8.10;4.80;;;;;;;3.66;80.01;97171.37;115392;1199;24584;-89
2021/10/17 02:07:36;;;;;;;10.30;4.20;;;;;;;3.67;79.97;97167.01;115458;1199;28341;-90
2021/10/17 02:10:07;;;;;;;10.60;4.90;;;;;;;3.68;79.74;97166.84;115386;1199;28418;-89
2021/10/17 02:12:35;;;;;;;12.20;4.40;;;;;;;3.72;79.87;97168.56;115446;1192;25160;-90
2021/10/17 02:15:05;;;;;;;9.00;5.50;;;;;;;3.77;79.73;97170.36;115526;1198;24554;-90
2021/10/17 02:17:33;;;;;;;9.30;5.10;;;;;;;3.79;79.60;97170.84;115568;1198;28621;-89
2021/10/17 02:20:01;;;;;;;11.90;6.40;;;;;;;3.80;79.66;97174.91;115498;1198;33310;-90
2021/10/17 02:22:29;;;;;;;14.50;6.70;;;;;;;3.77;79.60;97172.48;115505;1199;26546;-89
2021/10/17 02:24:57;;;;;;;10.40;6.50;;;;;;;3.76;79.59;97173.43;115520;1198;27796;-88
2021/10/17 02:27:25;;;;;;;11.00;6.20;;;;;;;3.76;79.70;97168.66;115534;1198;25379;-90
2021/10/17 02:29:53;;;;;;;11.60;5.80;;;;;;;3.72;79.47;97167.47;115587;1199;26654;-90
2021/10/17 02:32:21;;;;;;;11.40;5.90;;;;;;;3.65;79.53;97167.41;115552;1198;26674;-90
2021/10/17 02:34:49;;;;;;;11.00;5.70;;;;;;;3.68;79.70;97166.83;115441;1198;27408;-92
2021/10/17 02:37:17;;;;;;;12.90;6.60;;;;;;;3.72;79.66;97166.30;115512;1198;27534;-91
2021/10/17 02:39:45;;;;;;;13.10;6.80;;;;;;;3.66;79.48;97163.42;115504;1199;27142;-90
2021/10/17 02:42:13;;;;;;;11.10;6.40;;;;;;;3.66;79.64;97160.27;115420;1199;27669;-90
2021/10/17 02:44:41;;;;;;;11.50;6.00;;;;;;;3.65;79.70;97160.16;115433;1199;28319;-92
2021/10/17 02:47:09;;;;;;;11.30;6.70;;;;;;;3.66;79.69;97159.52;115473;1193;28730;-91
2021/10/17 02:49:37;;;;;;;12.80;6.80;;;;;;;3.63;79.64;97153.89;115409;1193;27427;-89
2021/10/17 02:52:06;;;;;;;11.70;6.50;;;;;;;3.59;79.68;97154.98;115385;1192;31561;-91
2021/10/17 02:54:34;;;;;;;13.70;7.20;;;;;;;3.55;79.86;97150.86;115417;1199;25980;-90
2021/10/17 02:57:02;;;;;;;12.70;8.10;;;;;;;3.53;79.79;97149.59;115480;1199;26526;-90
2021/10/17 02:59:30;;;;;;;15.20;8.30;;;;;;;3.47;79.81;97145.05;115288;1200;27313;-91
2021/10/17 03:01:58;;;;;;;14.60;8.00;;;;;;;3.49;79.98;97150.87;115435;1199;27455;-90
2021/10/17 03:04:26;;;;;;;16.40;7.90;;;;;;;3.52;80.13;97145.05;115512;1192;26848;-90
2021/10/17 03:06:55;;;;;;;13.30;7.30;;;;;;;3.53;80.03;97144.59;115490;1198;27007;-91
2021/10/17 03:09:24;;;;;;;13.10;6.10;;;;;;;3.51;80.04;97143.39;115465;1199;25905;-91
2021/10/17 03:11:52;;;;;;;15.50;7.20;;;;;;;3.51;80.24;97143.59;115423;1199;25169;-91
2021/10/17 03:14:20;;;;;;;13.20;7.20;;;;;;;3.51;80.21;97145.33;115397;1199;26139;-92
2021/10/17 03:16:54;;;;;;;11.50;7.30;;;;;;;3.53;80.15;97141.69;115414;1199;43721;-90
2021/10/17 03:19:22;;;;;;;14.90;6.90;;;;;;;3.56;80.20;97141.17;115482;1199;27008;-90
2021/10/17 03:21:50;;;;;;;10.60;5.60;;;;;;;3.56;80.32;97139.50;115447;1199;24094;-90
2021/10/17 03:24:18;;;;;;;9.50;5.70;;;;;;;3.57;80.23;97141.35;115381;1199;26523;-90
2021/10/17 03:26:46;;;;;;;10.20;6.30;;;;;;;3.59;80.18;97142.41;115439;1199;25583;-90
2021/10/17 03:29:14;;;;;;;9.10;5.40;;;;;;;3.59;80.18;97139.11;115427;1199;32195;-89
2021/10/17 03:31:43;;;;;;;10.60;5.30;;;;;;;3.58;80.10;97138.51;115382;1199;26772;-89
2021/10/17 03:34:11;;;;;;;15.90;6.30;;;;;;;3.57;80.28;97133.33;115396;1199;29736;-90
2021/10/17 03:36:39;;;;;;;11.20;5.50;;;;;;;3.57;80.42;97133.49;115418;1199;30613;-89
2021/10/17 03:39:07;;;;;;;10.30;5.00;;;;;;;3.55;80.36;97129.94;115376;1192;26400;-89
2021/10/17 03:41:35;;;;;;;13.80;5.40;;;;;;;3.51;80.34;97133.54;115384;1199;26490;-91
2021/10/17 03:44:04;;;;;;;13.90;6.80;;;;;;;3.51;80.33;97131.70;115458;1199;30265;-89
2021/10/17 03:46:32;;;;;;;10.80;5.80;;;;;;;3.52;80.37;97129.69;115429;1199;28657;-90
2021/10/17 03:49:00;;;;;;;12.30;5.80;;;;;;;3.48;80.16;97129.04;115370;1199;29461;-90
2021/10/17 03:51:28;;;;;;;13.30;5.50;;;;;;;3.48;80.18;97126.73;115374;1199;46667;-89
2021/10/17 03:53:56;;;;;;;8.60;4.80;;;;;;;3.46;80.03;97126.23;115339;1199;39673;-86
2021/10/17 03:56:24;;;;;;;14.40;6.80;;;;;;;3.46;80.13;97126.75;115435;1193;42462;-90
2021/10/17 03:58:52;;;;;;;10.40;5.70;;;;;;;3.44;80.04;97127.52;115500;1192;28285;-89
2021/10/17 04:01:20;;;;;;;13.60;6.10;;;;;;;3.43;79.94;97124.63;115405;1199;25535;-90
2021/10/17 04:03:48;;;;;;;11.00;6.10;;;;;;;3.41;79.99;97123.05;115443;1198;27909;-90
2021/10/17 04:06:16;;;;;;;11.40;6.20;;;;;;;3.38;79.92;97121.13;115443;1199;27291;-89
2021/10/17 04:08:44;;;;;;;13.10;6.70;;;;;;;3.35;79.91;97121.80;115426;1199;28755;-90
2021/10/17 04:11:12;;;;;;;12.70;6.60;;;;;;;3.31;79.96;97120.24;115427;1199;27580;-91
2021/10/17 04:13:41;;;;;;;12.00;6.20;;;;;;;3.31;79.95;97122.02;115390;1195;27325;-91
2021/10/17 04:16:09;;;;;;;9.30;5.80;;;;;;;3.31;79.98;97122.59;115224;1200;26742;-90
2021/10/17 04:18:38;;;;;;;13.50;6.60;;;;;;;3.28;79.89;97119.64;115203;1200;27882;-90
2021/10/17 04:21:06;;;;;;;11.10;6.30;;;;;;;3.22;79.93;97116.64;115383;1199;28024;-90
2021/10/17 04:23:34;;;;;;;10.50;6.30;;;;;;;3.14;79.93;97118.62;115439;1199;27483;-90
2021/10/17 04:26:02;;;;;;;11.00;5.60;;;;;;;3.09;80.07;97119.55;115513;1198;28500;-90
2021/10/17 04:28:30;;;;;;;8.20;4.30;;;;;;;3.09;80.13;97119.04;115495;1199;39736;-90
2021/10/17 04:30:59;;;;;;;7.60;5.00;;;;;;;3.13;80.23;97119.37;115427;1199;49472;-89
2021/10/17 04:33:27;;;;;;;10.90;4.70;;;;;;;3.19;80.49;97123.23;115510;1198;25900;-87
2021/10/17 04:35:55;;;;;;;10.40;5.00;;;;;;;3.22;80.42;97125.38;115490;1199;25918;-89
2021/10/17 04:38:23;;;;;;;11.20;5.20;;;;;;;3.27;80.45;97128.04;115460;1193;27645;-90
2021/10/17 04:40:52;;;;;;;7.20;4.50;;;;;;;3.31;80.34;97125.85;115482;1199;27644;-90
2021/10/17 04:43:20;;;;;;;11.40;5.90;;;;;;;3.32;80.19;97128.38;115083;1193;29104;-89
2021/10/17 04:45:48;;;;;;;10.90;5.30;;;;;;;3.28;80.14;97127.86;115446;1192;27553;-90
2021/10/17 04:48:17;;;;;;;11.50;5.90;;;;;;;3.26;80.26;97125.02;115417;1194;28612;-88
2021/10/17 04:50:45;;;;;;;9.00;4.60;;;;;;;3.24;80.32;97127.27;115448;1199;25857;-89
2021/10/17 04:53:13;;;;;;;10.00;5.10;;;;;;;3.23;80.43;97129.60;115481;1192;36514;-90
2021/10/17 04:55:41;;;;;;;9.90;5.10;;;;;;;3.24;80.41;97133.04;115436;1184;26290;-90
2021/10/17 04:58:09;;;;;;;9.90;5.50;;;;;;;3.21;80.23;97133.77;115427;1199;27615;-90
2021/10/17 05:00:38;;;;;;;11.00;5.70;;;;;;;3.19;80.11;97129.37;115323;1200;29266;-90
2021/10/17 05:03:06;;;;;;;10.70;5.30;;;;;;;3.17;80.08;97131.26;115435;1194;41878;-89
2021/10/17 05:05:34;;;;;;;11.80;5.20;;;;;;;3.16;80.17;97131.70;115449;1199;29581;-89
2021/10/17 05:08:03;;;;;;;9.30;5.60;;;;;;;3.13;80.05;97133.19;115443;1199;27944;-91
2021/10/17 05:10:31;;;;;;;9.30;5.90;;;;;;;3.09;80.02;97132.41;115368;1199;29981;-90
2021/10/17 05:12:59;;;;;;;10.40;5.90;;;;;;;3.08;80.16;97134.80;115407;1199;30307;-90
2021/10/17 05:15:28;;;;;;;10.40;6.00;;;;;;;3.11;80.23;97136.27;115460;1199;26866;-90
2021/10/17 05:17:56;;;;;;;13.30;5.60;;;;;;;3.11;80.10;97135.95;115501;1199;28323;-90
2021/10/17 05:20:24;;;;;;;9.20;5.60;;;;;;;3.11;80.10;97133.94;115502;1192;26366;-90
2021/10/17 05:22:52;;;;;;;8.30;5.30;;;;;;;3.11;80.00;97136.55;115478;1199;24789;-90
2021/10/17 05:25:20;;;;;;;8.30;4.90;;;;;;;3.14;80.09;97139.50;115392;1199;27277;-91
2021/10/17 05:27:48;;;;;;;8.80;4.70;;;;;;;3.22;80.11;97141.10;115366;1199;28608;-90
2021/10/17 05:30:16;;;;;;;7.80;4.80;;;;;;;3.53;80.34;97142.23;115413;1199;31953;-89
2021/10/17 05:32:44;;;;;;;9.40;4.80;;;;;;;4.18;80.48;97143.84;115358;1199;31426;-90
2021/10/17 05:35:13;;;;;;;9.40;4.60;;;;;;;4.84;80.06;97146.69;115431;1199;28252;-90
2021/10/17 05:37:41;;;;;;;12.00;4.80;;;;;;;5.50;79.21;97148.39;115414;1199;29506;-89
2021/10/17 05:40:10;;;;;;;7.00;4.20;;;;;;;6.19;78.37;97150.55;115350;1199;28048;-90
2021/10/17 05:42:38;;;;;;;8.70;4.10;;;;;;;6.78;77.10;97155.81;115381;1199;24534;-90
2021/10/17 05:45:07;;;;;;;8.00;4.60;;;;;;;7.28;76.19;97154.79;115438;1198;54804;-90
2021/10/17 05:47:36;;;;;;;9.60;4.00;;;;;;;7.98;75.97;97151.67;115353;1192;29046;-91
2021/10/17 05:50:05;;;;;;;7.20;3.80;;;;;;;8.76;74.93;97155.13;115265;1200;26090;-91
2021/10/17 05:52:34;;;;;;;9.00;4.50;;;;;;;9.33;73.56;97158.48;115360;1192;27640;-90
2021/10/17 05:55:02;;;;;;;8.30;4.60;;;;;;;10.04;73.13;97161.21;115257;1200;26094;-90
2021/10/17 05:57:30;;;;;;;11.60;4.30;;;;;;;10.79;71.93;97163.61;115380;1199;25944;-90
2021/10/17 05:59:58;;;;;;;8.00;4.50;;;;;;;11.28;69.92;97165.59;115408;1199;26591;-89
2021/10/17 06:02:27;;;;;;;8.40;4.60;;;;;;;11.64;68.85;97166.30;115415;1192;28182;-85
2021/10/17 06:04:55;;;;;;;10.60;4.70;;;;;;;12.25;68.04;97161.63;115425;1199;40293;-90
2021/10/17 06:07:23;;;;;;;6.90;4.40;;;;;;;12.11;65.86;97163.20;115470;1199;26202;-90
2021/10/17 06:09:51;;;;;;;8.10;4.30;;;;;;;12.30;66.24;97164.73;115488;1199;25392;-90
2021/10/17 06:12:19;;;;;;;7.80;3.80;;;;;;;12.78;64.07;97164.62;115384;1199;24176;-90
2021/10/17 06:14:47;;;;;;;7.60;3.80;;;;;;;13.03;63.84;97165.52;115403;1184;29484;-90
2021/10/17 06:17:16;;;;;;;6.90;3.60;;;;;;;13.08;62.38;97161.86;115343;1199;25661;-89
2021/10/17 06:19:44;;;;;;;7.30;4.20;;;;;;;13.07;62.22;97167.40;115420;1199;27495;-89
2021/10/17 06:22:12;;;;;;;8.80;4.60;;;;;;;13.07;61.10;97169.06;115388;1199;25947;-89
2021/10/17 06:24:40;;;;;;;7.80;4.60;;;;;;;12.96;59.17;97173.83;115367;1199;28885;-89
2021/10/17 06:27:08;;;;;;;8.70;5.00;;;;;;;12.74;59.26;97178.76;115370;1199;27312;-88
2021/10/17 06:29:36;;;;;;;8.00;4.70;;;;;;;12.77;58.83;97180.52;115377;1199;34401;-89
2021/10/17 06:32:06;;;;;;;10.10;5.30;;;;;;;12.84;58.48;97183.63;115408;1199;27883;-90
2021/10/17 06:34:34;;;;;;;8.00;4.90;;;;;;;13.13;57.36;97178.08;115467;1198;28089;-89
2021/10/17 06:37:03;;;;;;;8.00;4.60;;;;;;;13.52;57.66;97180.42;115476;1199;25528;-89
2021/10/17 06:39:31;;;;;;;9.80;5.20;;;;;;;13.84;56.74;97175.17;115424;1198;30428;-88
2021/10/17 06:42:00;;;;;;;9.10;4.60;;;;;;;13.94;55.64;97176.05;115458;1198;27383;-89
2021/10/17 06:44:28;;;;;;;8.20;4.70;;;;;;;14.04;55.40;97174.98;115462;1199;33266;-87
2021/10/17 06:46:57;;;;;;;7.70;4.70;;;;;;;14.04;54.67;97174.28;115539;1192;26503;-89
2021/10/17 06:49:25;;;;;;;9.20;4.90;;;;;;;14.20;55.65;97173.05;115482;1198;26690;-89
2021/10/17 06:51:53;;;;;;;12.70;4.80;;;;;;;14.77;55.31;97175.34;115468;1199;28002;-86
2021/10/17 06:54:22;;;;;;;9.00;4.20;;;;;;;15.05;52.93;97174.06;115434;1199;30965;-89
2021/10/17 06:56:50;;;;;;;7.50;4.30;;;;;;;14.80;52.70;97177.02;115403;1199;27309;-89
2021/10/17 06:59:19;;;;;;;8.00;4.80;;;;;;;14.88;51.77;97178.92;115137;1199;37678;-88
2021/10/17 07:01:48;;;;;;;6.80;4.30;;;;;;;14.87;51.21;97184.53;115348;1199;47874;-88
2021/10/17 07:04:17;;;;;;;9.90;5.00;;;;;;;14.82;51.05;97186.33;115480;1198;29643;-89
2021/10/17 07:06:45;;;;;;;8.70;4.50;;;;;;;14.67;50.36;97185.33;115420;1198;27179;-89
2021/10/17 07:09:13;;;;;;;7.90;4.10;;;;;;;14.85;51.40;97185.43;115409;1199;28548;-90
2021/10/17 07:11:41;;;;;;;9.00;4.20;;;;;;;15.14;51.10;97186.23;115371;1199;30409;-89
2021/10/17 07:14:09;;;;;;;9.10;4.40;;;;;;;15.50;51.14;97185.17;115462;1184;32714;-90
2021/10/17 07:16:38;;;;;;;8.90;4.30;;;;;;;15.60;50.77;97184.27;115425;1199;32002;-90
2021/10/17 07:19:06;;;;;;;9.10;4.70;;;;;;;15.57;50.55;97183.08;115313;1200;29153;-89
2021/10/17 07:21:34;;;;;;;10.30;5.80;;;;;;;15.43;49.67;97181.61;115200;1193;28480;-91
2021/10/17 07:24:03;;;;;;;11.80;6.00;;;;;;;15.00;49.98;97187.91;115390;1199;27341;-91
2021/10/17 07:26:32;;;;;;;9.40;5.20;;;;;;;14.80;50.64;97186.46;115438;1198;28773;-90
2021/10/17 07:29:00;;;;;;;12.70;5.90;;;;;;;14.74;50.35;97185.59;115298;1192;28613;-90
2021/10/17 07:31:29;;;;;;;10.20;5.70;;;;;;;14.32;50.41;97185.26;115449;1198;25577;-89
2021/10/17 07:33:57;;;;;;;12.00;6.20;;;;;;;14.05;50.45;97181.83;115542;1198;28457;-91
2021/10/17 07:36:46;;;;;;;10.60;5.60;;;;;;;13.69;50.42;97189.39;115579;1199;28598;-94
2021/10/17 07:39:34;;;;;;;11.70;6.00;;;;;;;13.39;50.70;97189.44;115433;1199;36230;-90
2021/10/17 07:42:02;;;;;;;11.20;6.40;;;;;;;13.18;51.29;97190.01;115461;1192;28017;-91
2021/10/17 07:44:30;;;;;;;11.00;6.40;;;;;;;13.14;51.76;97186.73;115452;1198;28892;-90
2021/10/17 07:46:59;;;;;;;11.80;6.70;;;;;;;13.02;51.39;97191.30;115481;1198;42762;-93
2021/10/17 07:49:27;;;;;;;15.50;6.90;;;;;;;12.89;51.82;97188.38;115399;1193;34811;-92
2021/10/17 07:51:58;;;;;;;13.60;6.90;;;;;;;12.79;51.63;97188.88;115453;1199;31319;-91
2021/10/17 07:54:26;;;;;;;11.00;6.90;;;;;;;12.50;52.01;97186.32;115541;1191;36857;-93
2021/10/17 07:56:55;;;;;;;15.50;7.30;;;;;;;12.42;52.43;97187.86;115386;1192;38250;-91
2021/10/17 07:59:31;;;;;;;10.70;6.40;;;;;;;12.33;52.72;97180.83;115460;1198;34725;-91
2021/10/17 08:02:20;;;;;;;11.30;6.30;;;;;;;12.30;52.75;97181.76;115498;1192;55470;-95
2021/10/17 08:04:49;;;;;;;11.50;6.10;;;;;;;12.15;52.77;97184.55;115424;1199;55516;-93
2021/10/17 08:07:19;;;;;;;;;;;;;;;11.95;53.01;97187.40;115449;1198;36686;-93
2021/10/17 08:09:48;;;;;;;11.70;6.50;;;;;;;11.80;53.29;97188.62;115282;1199;45782;-92
2021/10/17 08:12:17;;;;;;;12.70;5.70;;;;;;;11.65;53.38;97195.13;115346;1199;30279;-91
2021/10/17 08:14:45;;;;;;;11.10;5.80;;;;;;;11.62;54.26;97194.13;115427;1199;29426;-93
2021/10/17 08:17:18;;;;;;;9.60;5.20;;;;;;;11.75;54.30;97187.87;115385;1199;37385;-92
2021/10/17 08:19:55;;;;;;;10.40;6.10;;;;;;;11.54;54.08;97192.61;115534;1199;31361;-90
2021/10/17 08:22:24;;;;;;;9.60;5.50;;;;;;;11.33;54.29;97194.79;115478;1199;28506;-91
2021/10/17 08:24:52;;;;;;;9.60;5.10;;;;;;;11.14;54.80;97197.20;115508;1198;30175;-91
2021/10/17 08:27:21;;;;;;;9.10;5.70;;;;;;;11.16;55.05;97201.87;115272;1199;33365;-89
2021/10/17 08:29:50;;;;;;;12.00;5.30;;;;;;;11.06;55.12;97204.67;115350;1199;34660;-90
2021/10/17 08:32:19;;;;;;;9.20;5.20;;;;;;;11.08;55.53;97199.27;115364;1199;32757;-91
2021/10/17 08:34:49;;;;;;;7.80;4.60;;;;;;;11.14;55.73;97197.83;115405;1199;40919;-91
2021/10/17 08:37:18;;;;;;;10.30;5.10;;;;;;;11.15;55.60;97195.92;115431;1198;33440;-90
2021/10/17 08:39:47;;;;;;;10.60;5.20;;;;;;;11.15;55.68;97193.48;115425;1192;31733;-93
2021/10/17 08:42:16;;;;;;;8.30;4.70;;;;;;;11.26;56.02;97190.75;115444;1199;39065;-90
2021/10/17 08:44:56;;;;;;;7.70;3.60;;;;;;;11.33;55.73;97193.08;115484;1198;36654;-93
2021/10/17 08:47:27;;;;;;;8.50;4.90;;;;;;;11.32;54.82;97190.38;115512;1198;33425;-93
2021/10/17 08:49:56;;;;;;;5.10;2.70;;;;;;;11.27;55.21;97183.64;115428;1199;34693;-89
2021/10/17 08:52:25;;;;;;;6.50;3.50;;;;;;;11.31;54.73;97184.33;115557;1192;28163;-89
2021/10/17 08:54:53;;;;;;;5.50;2.40;;;;;;;11.27;54.19;97184.48;115562;1198;46419;-91
2021/10/17 08:57:22;;;;;;;6.00;2.10;;;;;;;11.27;53.87;97186.41;115338;1199;38110;-89
2021/10/17 08:59:52;;;;;;;4.60;2.20;;;;;;;11.21;53.56;97188.73;115487;1198;31404;-91
2021/10/17 09:02:23;;;;;;;4.20;2.00;;;;;;;11.27;53.31;97189.48;115472;1197;32555;-91
2021/10/17 09:05:04;;;;;;;4.20;1.60;;;;;;;11.32;53.07;97189.36;115485;1199;34244;-92
2021/10/17 09:07:34;;;;;;;6.20;2.30;;;;;;;11.31;52.54;97190.16;115423;1198;29697;-92
2021/10/17 09:10:09;;;;;;;4.40;2.00;;;;;;;11.28;52.63;97193.89;115388;1199;32229;-90
2021/10/17 09:12:40;;;;;;;5.00;2.10;;;;;;;11.36;52.57;97194.55;115566;1198;34243;-87
2021/10/17 09:15:30;;;;;;;4.70;2.30;;;;;;;11.40;52.32;97194.50;115433;1199;29182;-90
2021/10/17 09:18:14;;;;;;;4.60;2.40;;;;;;;11.36;51.84;97194.02;115463;1199;29040;-92
2021/10/17 09:20:55;;;;;;;3.50;2.00;;;;;;;11.20;51.41;97192.46;115396;1195;30262;-89
2021/10/17 09:23:43;;;;;;;4.70;2.00;;;;;;;11.21;52.24;97197.30;115509;1199;32650;-92
2021/10/17 09:26:17;;;;;;;3.60;2.10;;;;;;;11.36;52.17;97193.82;115299;1199;26322;-90
2021/10/17 09:28:46;;;;;;;3.70;1.60;;;;;;;11.52;52.86;97192.77;115502;1199;25651;-90
2021/10/17 09:31:18;;;;;;;3.80;1.90;;;;;;;11.68;52.99;97189.02;115367;1199;26944;-90
2021/10/17 09:33:49;;;;;;;4.50;2.00;;;;;;;11.74;52.88;97185.23;115389;1194;28921;-93
2021/10/17 09:36:23;;;;;;;6.50;2.20;;;;;;;11.86;52.23;97180.48;115485;1199;42639;-91
2021/10/17 09:38:55;;;;;;;2.60;1.80;;;;;;;11.84;51.56;97180.27;115467;1198;29564;-90
2021/10/17 09:41:32;;;;;;;4.50;2.00;;;;;;;11.74;51.51;97178.90;115626;1198;26294;-90
2021/10/17 09:44:02;;;;;;;4.80;2.00;;;;;;;11.56;51.38;97178.16;115492;1199;33286;-89
2021/10/17 09:46:31;;;;;;;4.10;2.30;;;;;;;11.44;51.43;97178.41;115563;1199;32091;-90
2021/10/17 09:49:00;;;;;;;3.80;1.90;;;;;;;11.45;51.73;97173.63;115360;1185;37270;-91
2021/10/17 09:51:29;;;;;;;3.00;1.90;;;;;;;11.59;51.44;97168.86;115373;1195;32836;-90
2021/10/17 09:53:59;;;;;;;4.40;2.10;;;;;;;11.63;50.91;97169.16;115383;1192;28987;-91
2021/10/17 09:56:31;;;;;;;5.00;2.40;;;;;;;11.71;51.45;97164.83;115601;1199;29921;-92
2021/10/17 09:59:07;;;;;;;2.90;1.80;;;;;;;11.83;51.14;97160.20;115388;1199;25943;-91
2021/10/17 10:01:37;;;;;;;3.70;1.90;;;;;;;11.93;51.25;97158.23;115401;1199;34926;-89
2021/10/17 10:04:08;;;;;;;3.90;2.10;;;;;;;12.00;50.75;97159.43;115295;1193;28003;-91
2021/10/17 10:06:36;;;;;;;4.90;2.30;;;;;;;12.02;50.84;97155.59;115374;1197;34251;-91
2021/10/17 10:09:07;;;;;;;4.20;2.20;;;;;;;11.93;50.55;97156.74;115402;1184;31718;-90
2021/10/17 10:11:35;;;;;;;;;;;;;;;11.85;50.87;97155.62;115376;1199;28359;-92
2021/10/17 10:14:06;;;;;;;3.30;2.00;;;;;;;11.85;51.24;97155.84;115452;1193;40609;-94
2021/10/17 10:16:36;;;;;;;6.60;2.50;;;;;;;11.93;51.40;97155.80;115465;1199;33383;-94
2021/10/17 10:19:06;;;;;;;5.40;2.80;;;;;;;11.95;51.39;97154.30;115471;1199;32122;-94
2021/10/17 10:21:36;;;;;;;4.90;2.90;;;;;;;11.83;50.79;97154.47;115332;1199;32036;-94
2021/10/17 10:24:08;;;;;;;5.50;2.40;;;;;;;11.91;51.43;97151.12;115310;1193;36101;-94
2021/10/17 10:26:41;;;;;;;4.90;2.30;;;;;;;12.03;51.17;97150.38;115427;1199;31338;-96
2021/10/17 10:29:11;;;;;;;4.70;2.70;;;;;;;12.11;50.81;97150.08;115390;1199;35881;-93
2021/10/17 10:31:51;;;;;;;4.80;2.60;;;;;;;12.05;50.43;97147.82;115385;1199;29654;-93
2021/10/17 10:34:53;;;;;;;7.10;2.80;;;;;;;11.91;49.44;97145.39;115314;1199;48378;-93
2021/10/17 10:37:34;;;;;;;5.50;2.60;;;;;;;11.73;50.05;97139.39;115774;1199;31829;-93
2021/10/17 10:40:18;;;;;;;5.70;2.70;;;;;;;11.88;51.25;97137.11;115788;1199;52579;-95
2021/10/17 10:42:55;;;;;;;7.10;2.90;;;;;;;11.89;50.31;97138.00;115789;1199;29923;-96
2021/10/17 10:45:43;;;;;;;5.90;3.40;;;;;;;11.63;50.63;97138.13;115537;1199;35190;-95
2021/10/17 10:48:30;;;;;;;5.50;2.60;;;;;;;11.69;51.09;97138.08;115444;1194;33642;-93
2021/10/17 10:50:59;;;;;;;4.70;2.50;;;;;;;11.78;51.18;97139.91;115440;1193;48444;-93
2021/10/17 10:53:48;;;;;;;5.10;2.70;;;;;;;11.80;50.33;97139.69;115355;1199;33407;-92
2021/10/17 10:56:46;;;;;;;6.20;2.50;;;;;;;11.79;49.98;97135.59;115426;1196;27129;-90
2021/10/17 10:59:17;;;;;;;6.20;2.50;;;;;;;11.61;49.34;97139.42;115496;1197;32501;-89
2021/10/17 11:02:14;;;;;;;5.80;2.50;;;;;;;11.58;50.45;97138.55;115564;1194;27115;-90
2021/10/17 11:05:01;;;;;;;11.00;4.90;;;;;;;11.74;50.54;97134.59;115534;1198;29524;-92
2021/10/17 11:07:48;;;;;;;14.40;7.20;;;;;;;11.89;51.30;97131.10;115445;1199;33103;-92
2021/10/17 11:10:55;;;;;;;5.70;3.20;;;;;;;12.03;50.50;97129.27;115342;1199;27543;-92
2021/10/17 11:13:46;;;;;;;5.70;2.80;;;;;;;11.94;49.75;97131.71;115373;1193;32926;-93
2021/10/17 11:16:23;;;;;;;7.00;2.90;;;;;;;11.97;50.40;97124.74;115377;1193;34472;-95
2021/10/17 11:19:01;;;;;;;5.50;2.90;;;;;;;12.06;50.37;97128.09;115244;1199;30251;-93
2021/10/17 11:21:35;;;;;;;3.90;2.40;;;;;;;12.03;49.91;97122.59;115332;1199;33128;-93
2021/10/17 11:24:05;;;;;;;6.80;3.10;;;;;;;11.95;49.85;97120.34;115468;1198;36392;-91
2021/10/17 11:26:34;;;;;;;4.60;2.60;;;;;;;11.97;49.85;97119.91;115301;1198;31374;-91
2021/10/17 11:29:05;;;;;;;;;;;;;;;12.00;50.17;97117.08;115436;1198;45148;-93
2021/10/17 11:31:34;;;;;;;5.40;3.00;;;;;;;11.87;50.10;97112.35;115292;1199;43277;-93
2021/10/17 11:34:02;;;;;;;5.70;2.90;;;;;;;11.82;50.46;97110.84;115356;1198;38902;-94
2021/10/17 11:36:33;;;;;;;7.30;2.60;;;;;;;11.72;50.08;97108.46;115060;1194;81192;-94
2021/10/17 11:39:03;;;;;;;7.50;3.00;;;;;;;11.60;50.41;97105.86;115441;1199;29273;-92
2021/10/17 11:41:31;;;;;;;7.50;2.80;;;;;;;11.70;50.53;97107.25;115397;1199;30806;-90